Time;durP1;ratioP1;P1;durP2;ratioP2;P2;SDS_P1;SDS_P2;PMS_P1;PMS_P2;Temp;Humidity;BMP_temperature;BMP_pressure;BME280_temperature;BME280_humidity;BME280_pressure;Samples;Min_cycle;Max_cycle;Signal;HPM_P1;HPM_P2
2022/03/10 00:00:10;;;;;;;30.33;13.98;;;8.80;99.90;;;;;;5100750;28;20024;-77
2022/03/10 00:02:36;;;;;;;78.72;49.38;;;8.90;99.90;;;;;;5100385;28;20107;-77
2022/03/10 00:05:03;;;;;;;27.33;17.48;;;9.00;99.90;;;;;;5100573;28;20085;-77
2022/03/10 00:07:29;;;;;;;74.75;45.30;;;9.00;99.90;;;;;;5099062;28;20500;-77
2022/03/10 00:09:55;;;;;;;29.85;18.00;;;9.00;99.90;;;;;;5100514;28;20426;-77
2022/03/10 00:12:20;;;;;;;27.95;14.63;;;9.00;99.90;;;;;;5099923;28;20081;-77
2022/03/10 00:14:46;;;;;;;32.13;18.33;;;9.00;99.90;;;;;;5100546;28;20024;-77
2022/03/10 00:17:12;;;;;;;91.10;51.78;;;9.00;99.90;;;;;;5100167;28;20024;-78
2022/03/10 00:19:38;;;;;;;61.40;35.92;;;9.00;99.90;;;;;;5100285;28;20068;-77
2022/03/10 00:22:04;;;;;;;37.03;20.23;;;9.00;99.90;;;;;;5099987;28;20039;-78
2022/03/10 00:24:30;;;;;;;42.17;21.13;;;9.00;99.90;;;;;;5098808;28;20043;-77
2022/03/10 00:26:56;;;;;;;35.20;22.10;;;8.90;99.90;;;;;;5099428;28;20024;-77
2022/03/10 00:29:22;;;;;;;74.90;41.83;;;8.90;99.90;;;;;;5100019;28;20365;-77
2022/03/10 00:31:48;;;;;;;57.00;31.30;;;9.00;99.90;;;;;;5099823;28;20039;-77
2022/03/10 00:34:14;;;;;;;57.92;32.70;;;8.90;99.90;;;;;;5098678;28;20060;-77
2022/03/10 00:36:40;;;;;;;39.22;23.63;;;9.00;99.90;;;;;;5098549;28;20051;-77
2022/03/10 00:39:06;;;;;;;69.72;39.97;;;9.00;99.90;;;;;;5098284;28;20055;-78
2022/03/10 00:41:32;;;;;;;35.90;24.27;;;9.00;99.90;;;;;;5099182;28;20032;-77
2022/03/10 00:43:58;;;;;;;17.25;13.55;;;9.10;99.90;;;;;;5097417;28;20020;-78
2022/03/10 00:46:23;;;;;;;28.35;16.40;;;9.10;99.90;;;;;;5099640;28;20031;-77
2022/03/10 00:48:49;;;;;;;68.05;37.05;;;9.20;99.90;;;;;;5099877;28;20087;-77
2022/03/10 00:51:15;;;;;;;17.98;14.48;;;9.20;99.90;;;;;;5098275;28;20521;-77
2022/03/10 00:53:41;;;;;;;22.90;13.10;;;9.20;99.90;;;;;;5099601;28;20103;-78
2022/03/10 00:56:07;;;;;;;17.92;12.70;;;9.20;99.90;;;;;;5098223;28;20039;-78
2022/03/10 00:58:33;;;;;;;19.02;12.10;;;9.20;99.90;;;;;;5099471;28;20031;-78
2022/03/10 01:00:58;;;;;;;23.17;12.30;;;9.20;99.90;;;;;;5099688;28;20027;-78
2022/03/10 01:03:24;;;;;;;19.88;11.77;;;9.20;99.90;;;;;;5098894;28;20030;-78
2022/03/10 01:05:50;;;;;;;20.17;12.60;;;9.20;99.90;;;;;;5099276;28;20028;-77
2022/03/10 01:08:16;;;;;;;17.15;12.00;;;9.20;99.90;;;;;;5098245;28;20058;-77
2022/03/10 01:10:42;;;;;;;17.92;11.02;;;9.20;99.90;;;;;;5099159;28;20103;-77
2022/03/10 01:13:15;;;;;;;18.85;11.20;;;9.20;99.90;;;;;;5098056;28;20044;-78
2022/03/10 01:15:43;;;;;;;18.10;12.13;;;9.30;99.90;;;;;;5099205;28;20067;-77
2022/03/10 01:18:09;;;;;;;18.88;10.93;;;9.30;99.90;;;;;;5099201;28;20020;-78
2022/03/10 01:20:35;;;;;;;18.02;11.20;;;9.30;99.90;;;;;;5098951;28;20444;-77
2022/03/10 01:23:01;;;;;;;16.33;11.50;;;9.30;99.90;;;;;;5099126;28;20024;-78
2022/03/10 01:25:27;;;;;;;23.55;11.55;;;9.30;99.90;;;;;;5097518;28;20115;-77
2022/03/10 01:27:53;;;;;;;17.27;11.00;;;9.30;99.90;;;;;;5097418;28;20497;-78
2022/03/10 01:30:19;;;;;;;16.60;11.88;;;9.30;99.90;;;;;;5097500;28;20056;-78
2022/03/10 01:32:45;;;;;;;15.68;11.38;;;9.30;99.90;;;;;;5097592;28;20024;-78
2022/03/10 01:35:12;;;;;;;22.15;10.93;;;9.30;99.90;;;;;;5098682;28;20085;-78
2022/03/10 01:37:39;;;;;;;20.40;11.73;;;9.40;99.90;;;;;;5097668;28;20020;-78
2022/03/10 01:40:20;;;;;;;24.73;11.73;;;9.40;99.90;;;;;;5097353;28;20127;-78
2022/03/10 01:42:50;;;;;;;18.00;10.52;;;9.50;99.90;;;;;;5098342;28;20119;-77
2022/03/10 01:45:16;;;;;;;18.85;11.18;;;9.50;99.90;;;;;;5096382;28;20028;-77
2022/03/10 01:47:42;;;;;;;16.23;11.07;;;9.50;99.90;;;;;;5097409;28;20476;-78
2022/03/10 01:50:10;;;;;;;16.75;9.88;;;9.50;99.90;;;;;;5098470;28;20584;-78
2022/03/10 01:52:37;;;;;;;20.63;10.27;;;9.50;99.90;;;;;;5097305;28;20031;-77
2022/03/10 01:55:04;;;;;;;20.40;12.07;;;9.50;99.90;;;;;;5097277;28;20039;-77
2022/03/10 01:57:31;;;;;;;13.68;9.93;;;9.50;99.90;;;;;;5096618;28;20221;-78
2022/03/10 01:59:57;;;;;;;19.50;10.88;;;9.50;99.90;;;;;;5097039;28;20032;-77
2022/03/10 02:02:23;;;;;;;14.70;10.23;;;9.40;99.90;;;;;;5098232;28;20365;-77
2022/03/10 02:04:49;;;;;;;14.10;10.52;;;9.40;99.90;;;;;;5097016;28;20498;-77
2022/03/10 02:10:17;;;;;;;13.82;10.38;;;9.50;99.90;;;;;;5098275;28;20062;-77
2022/03/10 02:12:54;;;;;;;15.38;10.05;;;9.50;99.90;;;;;;5096829;28;20073;-77
2022/03/10 02:18:07;;;;;;;14.38;10.60;;;9.40;99.90;;;;;;5098174;28;20038;-78
2022/03/10 02:20:34;;;;;;;15.10;11.32;;;9.50;99.90;;;;;;5096716;28;20053;-77
2022/03/10 02:23:00;;;;;;;18.77;10.63;;;9.50;99.90;;;;;;5098267;28;20088;-78
2022/03/10 02:25:29;;;;;;;19.65;10.90;;;9.40;99.90;;;;;;5097838;28;20016;-77
2022/03/10 02:27:56;;;;;;;15.30;10.18;;;9.40;99.90;;;;;;5097475;28;20024;-78
2022/03/10 02:30:24;;;;;;;17.50;11.40;;;9.40;99.90;;;;;;5096303;28;20492;-77
2022/03/10 02:32:50;;;;;;;17.92;11.35;;;9.40;99.90;;;;;;5096476;28;20431;-78
2022/03/10 02:35:17;;;;;;;17.77;10.35;;;9.40;99.90;;;;;;5096214;28;20032;-78
2022/03/10 02:37:44;;;;;;;15.48;11.20;;;9.40;99.90;;;;;;5097997;28;20036;-77
2022/03/10 02:40:11;;;;;;;14.95;10.43;;;9.40;99.90;;;;;;5097350;28;20095;-78
2022/03/10 02:42:38;;;;;;;21.48;9.82;;;9.40;99.90;;;;;;5097088;28;20052;-78
2022/03/10 02:45:05;;;;;;;16.02;11.35;;;9.50;99.90;;;;;;5096395;28;20016;-77
2022/03/10 02:47:31;;;;;;;18.65;11.50;;;9.50;99.90;;;;;;5097658;28;20034;-77
2022/03/10 02:49:57;;;;;;;19.88;11.20;;;9.50;99.90;;;;;;5097415;28;20024;-78
2022/03/10 02:52:23;;;;;;;15.52;10.52;;;9.50;99.90;;;;;;5096155;28;20027;-77
2022/03/10 02:54:50;;;;;;;18.55;10.68;;;9.50;99.90;;;;;;5097332;28;20072;-78
2022/03/10 02:57:15;;;;;;;27.60;11.23;;;9.40;99.90;;;;;;5095712;28;20051;-77
2022/03/10 02:59:42;;;;;;;20.67;11.90;;;9.40;99.90;;;;;;5095971;28;20496;-78
2022/03/10 03:02:09;;;;;;;18.60;11.65;;;9.40;99.90;;;;;;5097464;28;20076;-78
2022/03/10 03:04:35;;;;;;;19.23;11.57;;;9.40;99.90;;;;;;5097233;28;20012;-78
2022/03/10 03:07:01;;;;;;;18.58;11.38;;;9.30;99.90;;;;;;5095938;28;20031;-78
2022/03/10 03:09:27;;;;;;;16.27;11.23;;;9.30;99.90;;;;;;5096130;28;20031;-78
2022/03/10 03:11:53;;;;;;;20.60;11.70;;;9.30;99.90;;;;;;5095810;28;20038;-77
2022/03/10 03:14:22;;;;;;;17.73;12.07;;;9.30;99.90;;;;;;5097174;28;20048;-77
2022/03/10 03:16:52;;;;;;;18.35;11.95;;;9.20;99.90;;;;;;5097592;28;20478;-78
2022/03/10 03:19:18;;;;;;;15.80;12.47;;;9.20;99.90;;;;;;5097264;28;20031;-78
2022/03/10 03:21:44;;;;;;;19.40;11.75;;;9.20;99.90;;;;;;5097025;28;20028;-77
2022/03/10 03:24:10;;;;;;;19.25;11.98;;;9.10;99.90;;;;;;5095899;28;20541;-78
2022/03/10 03:26:36;;;;;;;17.48;11.90;;;9.10;99.90;;;;;;5100616;28;20418;-77
2022/03/10 03:29:02;;;;;;;18.25;11.48;;;9.10;99.90;;;;;;5101219;28;20024;-77
2022/03/10 03:31:28;;;;;;;25.67;12.35;;;9.10;99.90;;;;;;5101237;28;20039;-77
2022/03/10 03:33:53;;;;;;;19.50;11.65;;;9.00;99.90;;;;;;5100131;28;20028;-77
2022/03/10 03:36:19;;;;;;;20.13;12.07;;;9.00;99.90;;;;;;5101220;28;20392;-78
2022/03/10 03:38:45;;;;;;;18.58;11.30;;;9.00;99.90;;;;;;5099598;28;20079;-77
2022/03/10 03:41:11;;;;;;;20.15;12.23;;;8.90;99.90;;;;;;5100863;28;20111;-78
2022/03/10 03:43:37;;;;;;;21.60;11.70;;;8.90;99.90;;;;;;5099576;28;20426;-77
2022/03/10 03:46:03;;;;;;;17.13;12.18;;;8.90;99.90;;;;;;5101160;28;20038;-77
2022/03/10 03:48:29;;;;;;;17.75;11.85;;;8.90;99.90;;;;;;5099657;28;20111;-78
2022/03/10 03:50:55;;;;;;;18.17;12.85;;;8.90;99.90;;;;;;5100991;28;20084;-78
2022/03/10 03:53:21;;;;;;;21.95;10.95;;;8.90;99.90;;;;;;5099732;28;20122;-78
2022/03/10 03:55:47;;;;;;;20.05;12.25;;;8.90;99.90;;;;;;5100580;28;20365;-78
2022/03/10 03:58:13;;;;;;;21.52;13.50;;;8.90;99.90;;;;;;5100441;28;20024;-77
2022/03/10 04:00:39;;;;;;;22.35;12.77;;;8.90;99.90;;;;;;5099076;28;20039;-78
2022/03/10 04:03:12;;;;;;;22.38;11.80;;;8.90;99.90;;;;;;5099168;28;20024;-77
2022/03/10 04:05:39;;;;;;;18.70;12.27;;;8.90;99.90;;;;;;5099161;28;20028;-77
2022/03/10 04:08:05;;;;;;;18.52;11.35;;;9.00;99.90;;;;;;5100784;28;20418;-77
2022/03/10 04:10:32;;;;;;;16.23;12.23;;;8.90;99.90;;;;;;5098960;28;20038;-77
2022/03/10 04:12:58;;;;;;;20.33;12.70;;;9.00;99.90;;;;;;5099091;28;20024;-77
2022/03/10 04:15:24;;;;;;;15.25;11.18;;;9.00;99.90;;;;;;5099005;28;20064;-77
2022/03/10 04:17:50;;;;;;;20.25;11.90;;;9.00;99.90;;;;;;5098930;28;20459;-77
2022/03/10 04:20:16;;;;;;;21.67;12.25;;;9.10;99.90;;;;;;5100293;28;20055;-77
2022/03/10 04:22:42;;;;;;;16.88;11.85;;;9.10;99.90;;;;;;5100375;28;20415;-77
2022/03/10 04:25:11;;;;;;;23.30;12.73;;;9.10;99.90;;;;;;5098848;28;20043;-77
2022/03/10 04:27:37;;;;;;;18.70;12.15;;;9.20;99.90;;;;;;5098732;28;20491;-77
2022/03/10 04:30:07;;;;;;;19.10;11.30;;;9.20;99.90;;;;;;5098589;28;20077;-77
2022/03/10 04:32:44;;;;;;;26.60;12.70;;;9.20;99.90;;;;;;5098940;28;20028;-77
2022/03/10 04:35:12;;;;;;;18.00;11.57;;;9.20;99.90;;;;;;5081625;28;20396;-77
2022/03/10 04:37:38;;;;;;;19.08;12.90;;;9.20;99.90;;;;;;5097416;28;20031;-78
2022/03/10 04:40:07;;;;;;;22.95;11.18;;;9.30;99.90;;;;;;5098343;28;20048;-77
2022/03/10 04:42:35;;;;;;;26.17;12.15;;;9.30;99.90;;;;;;5099202;28;20481;-77
2022/03/10 04:45:01;;;;;;;18.73;11.68;;;9.30;99.90;;;;;;5098487;28;20020;-77
2022/03/10 04:47:27;;;;;;;21.15;12.73;;;9.30;99.90;;;;;;5098424;28;20020;-77
2022/03/10 04:49:53;;;;;;;19.25;11.73;;;9.30;99.90;;;;;;5098279;28;20056;-77
2022/03/10 04:52:19;;;;;;;15.38;10.73;;;9.30;99.90;;;;;;5098405;28;20031;-77
2022/03/10 04:54:45;;;;;;;14.35;10.75;;;9.30;99.90;;;;;;5099585;28;20024;-78
2022/03/10 04:57:10;;;;;;;18.00;11.88;;;9.30;99.90;;;;;;5097906;28;20031;-77
2022/03/10 04:59:36;;;;;;;16.90;11.13;;;9.30;99.90;;;;;;5099289;28;20042;-77
2022/03/10 05:02:03;;;;;;;15.15;11.05;;;9.30;99.90;;;;;;5098128;28;20024;-77
2022/03/10 05:04:29;;;;;;;20.00;11.88;;;9.30;99.90;;;;;;5098212;28;20035;-77
2022/03/10 05:06:55;;;;;;;15.45;11.35;;;9.30;99.90;;;;;;5098176;28;20020;-78
2022/03/10 05:09:20;;;;;;;15.18;11.60;;;9.20;99.90;;;;;;5098251;28;20026;-77
2022/03/10 05:11:46;;;;;;;20.02;12.05;;;9.20;99.90;;;;;;5098855;28;20050;-77
2022/03/10 05:14:12;;;;;;;15.75;11.52;;;9.20;99.90;;;;;;5090591;28;20082;-78
2022/03/10 05:16:38;;;;;;;21.70;11.90;;;9.20;99.90;;;;;;5098023;28;20365;-77
2022/03/10 05:19:04;;;;;;;20.17;11.70;;;9.20;99.90;;;;;;5097740;28;20036;-77
2022/03/10 05:21:29;;;;;;;21.13;12.32;;;9.10;99.90;;;;;;5098842;28;20020;-77
2022/03/10 05:23:55;;;;;;;19.30;11.90;;;9.10;99.90;;;;;;5099077;28;20490;-77
2022/03/10 05:26:21;;;;;;;26.33;13.02;;;9.10;99.90;;;;;;5099023;28;20019;-77
2022/03/10 05:28:47;;;;;;;29.65;13.80;;;9.10;99.90;;;;;;5097183;28;20484;-77
2022/03/10 05:31:13;;;;;;;19.92;14.38;;;9.00;99.90;;;;;;5097774;28;20035;-77
2022/03/10 05:33:39;;;;;;;15.70;13.10;;;9.00;99.90;;;;;;5098803;28;20024;-77
2022/03/10 05:36:05;;;;;;;18.13;13.90;;;9.00;99.90;;;;;;5098795;28;20028;-77
2022/03/10 05:38:30;;;;;;;20.05;13.90;;;9.00;99.90;;;;;;5098604;28;20051;-77
2022/03/10 05:40:56;;;;;;;20.40;14.43;;;9.00;99.90;;;;;;5097079;28;20063;-77
2022/03/10 05:43:22;;;;;;;24.25;14.18;;;9.00;99.90;;;;;;5098594;28;20024;-77
2022/03/10 05:45:48;;;;;;;27.30;15.38;;;9.00;99.90;;;;;;5097094;28;20020;-77
2022/03/10 05:48:14;;;;;;;25.90;15.52;;;9.00;99.90;;;;;;5098253;28;20041;-77
2022/03/10 05:50:40;;;;;;;24.25;14.63;;;9.00;99.90;;;;;;5098560;28;20026;-78
2022/03/10 05:53:07;;;;;;;21.17;13.93;;;8.90;99.90;;;;;;5097082;28;20031;-77
2022/03/10 05:55:33;;;;;;;22.65;14.07;;;9.00;99.90;;;;;;5098209;28;20488;-77
2022/03/10 05:57:59;;;;;;;22.98;14.75;;;8.90;99.90;;;;;;5097157;28;20114;-77
2022/03/10 06:00:24;;;;;;;26.42;15.07;;;8.90;99.90;;;;;;5098400;28;20328;-77
2022/03/10 06:02:51;;;;;;;25.00;15.15;;;8.90;99.90;;;;;;5096894;28;20122;-77
2022/03/10 06:05:17;;;;;;;33.45;16.30;;;8.90;99.90;;;;;;5098338;28;20024;-77
2022/03/10 06:07:43;;;;;;;26.27;16.27;;;8.90;99.90;;;;;;5096581;28;20020;-77
2022/03/10 06:10:09;;;;;;;24.60;17.13;;;8.80;99.90;;;;;;5096913;28;20027;-77
2022/03/10 06:12:35;;;;;;;36.00;17.85;;;8.70;99.90;;;;;;5096334;28;20438;-77
2022/03/10 06:15:04;;;;;;;26.17;17.13;;;8.70;99.90;;;;;;5098270;28;20032;-77
2022/03/10 06:17:31;;;;;;;28.83;16.50;;;8.60;99.90;;;;;;5096623;28;20035;-77
2022/03/10 06:19:57;;;;;;;33.10;18.70;;;8.60;99.90;;;;;;5097844;28;20035;-77
2022/03/10 06:22:26;;;;;;;31.33;18.17;;;8.60;99.90;;;;;;5097591;28;20455;-77
2022/03/10 06:24:52;;;;;;;25.25;19.20;;;8.60;99.90;;;;;;5097974;28;20012;-77
2022/03/10 06:27:19;;;;;;;27.65;19.48;;;8.60;99.90;;;;;;5096656;28;20499;-77
2022/03/10 06:29:46;;;;;;;31.77;19.25;;;8.50;99.90;;;;;;5096037;28;20103;-77
2022/03/10 06:32:12;;;;;;;28.85;20.52;;;8.50;99.90;;;;;;5097693;28;20051;-77
2022/03/10 06:34:38;;;;;;;28.70;20.13;;;8.50;99.90;;;;;;5096177;28;20069;-77
2022/03/10 06:37:05;;;;;;;27.48;18.88;;;8.50;99.90;;;;;;5093306;28;20039;-77
2022/03/10 06:39:31;;;;;;;36.88;19.27;;;8.50;99.90;;;;;;5097309;28;20080;-77
2022/03/10 06:41:57;;;;;;;28.58;19.17;;;8.50;99.90;;;;;;5097096;28;20040;-77
2022/03/10 06:44:24;;;;;;;32.88;20.35;;;8.60;99.90;;;;;;5097756;28;20589;-77
2022/03/10 06:46:51;;;;;;;38.60;21.38;;;8.60;99.90;;;;;;5096168;28;20039;-77
2022/03/10 06:49:17;;;;;;;28.95;19.50;;;8.60;99.90;;;;;;5096216;28;20019;-77
2022/03/10 06:51:43;;;;;;;32.95;21.85;;;8.70;99.90;;;;;;5096052;28;20024;-77
2022/03/10 06:54:09;;;;;;;31.27;21.30;;;8.70;99.90;;;;;;5096195;28;20511;-77
2022/03/10 06:56:35;;;;;;;41.13;21.55;;;8.70;99.90;;;;;;5097125;28;20028;-77
2022/03/10 06:59:00;;;;;;;40.95;22.08;;;8.70;99.90;;;;;;5096053;28;20020;-77
2022/03/10 07:01:26;;;;;;;29.35;20.08;;;8.70;99.90;;;;;;5096596;28;20397;-77
2022/03/10 07:03:55;;;;;;;30.27;22.00;;;8.80;99.90;;;;;;5097441;28;20049;-77
2022/03/10 07:06:21;;;;;;;30.00;19.25;;;8.80;99.90;;;;;;5096374;28;20077;-77
2022/03/10 07:08:47;;;;;;;29.77;22.13;;;8.90;99.90;;;;;;5097672;28;20016;-77
2022/03/10 07:11:13;;;;;;;31.52;20.02;;;8.90;99.90;;;;;;5097246;28;20552;-77
2022/03/10 07:13:38;;;;;;;29.88;20.52;;;9.00;99.90;;;;;;5089772;28;20024;-77
2022/03/10 07:16:04;;;;;;;30.63;20.75;;;9.00;99.90;;;;;;5096987;28;20028;-77
2022/03/10 07:18:30;;;;;;;34.40;20.10;;;9.00;99.90;;;;;;5096265;28;20050;-77
2022/03/10 07:20:56;;;;;;;32.65;19.92;;;9.00;99.90;;;;;;5096992;28;20032;-77
2022/03/10 07:23:22;;;;;;;32.78;19.10;;;9.10;99.90;;;;;;5097157;28;20084;-78
2022/03/10 07:25:48;;;;;;;32.00;20.27;;;9.10;99.90;;;;;;5095673;28;20046;-77
2022/03/10 07:28:14;;;;;;;31.05;19.13;;;9.20;99.90;;;;;;5096930;28;20100;-77
2022/03/10 07:30:40;;;;;;;31.70;19.35;;;9.20;99.90;;;;;;5097055;28;20059;-77
2022/03/10 07:33:12;;;;;;;30.80;18.95;;;9.20;99.90;;;;;;5096919;28;20012;-77
2022/03/10 07:35:38;;;;;;;35.10;19.65;;;9.20;99.90;;;;;;5095613;28;20020;-77
2022/03/10 07:38:04;;;;;;;26.33;17.98;;;9.30;99.90;;;;;;5097012;28;20099;-77
2022/03/10 07:40:30;;;;;;;29.00;18.85;;;9.40;99.90;;;;;;5096699;28;20043;-77
2022/03/10 07:42:55;;;;;;;31.00;19.20;;;9.40;99.90;;;;;;5096572;28;20044;-76
2022/03/10 07:45:22;;;;;;;27.33;18.75;;;9.40;99.90;;;;;;5095493;28;20052;-76
2022/03/10 07:47:48;;;;;;;36.75;19.45;;;9.50;99.90;;;;;;5095610;28;20028;-75
2022/03/10 07:50:14;;;;;;;29.25;16.92;;;9.60;99.90;;;;;;5096415;28;20024;-75
2022/03/10 07:52:40;;;;;;;28.50;18.02;;;9.70;99.90;;;;;;5096853;28;20095;-75
2022/03/10 07:55:08;;;;;;;22.75;17.08;;;9.80;99.90;;;;;;5095615;28;20475;-75
2022/03/10 07:57:35;;;;;;;29.52;17.80;;;9.90;99.90;;;;;;5095240;28;20022;-75
2022/03/10 08:00:04;;;;;;;24.30;15.95;;;10.10;99.90;;;;;;5097045;28;20052;-75
2022/03/10 08:02:31;;;;;;;25.73;17.30;;;10.20;99.90;;;;;;5096867;28;20115;-75
2022/03/10 08:04:57;;;;;;;22.58;15.65;;;10.20;99.90;;;;;;5095793;28;20089;-74
2022/03/10 08:07:22;;;;;;;22.83;15.18;;;10.30;99.90;;;;;;5095030;28;20028;-75
2022/03/10 08:09:48;;;;;;;25.23;16.45;;;10.30;99.90;;;;;;5095659;28;20388;-75
2022/03/10 08:12:14;;;;;;;23.17;16.15;;;10.40;99.90;;;;;;5097316;28;20024;-75
2022/03/10 08:14:40;;;;;;;18.98;13.25;;;10.50;99.90;;;;;;5099425;28;20036;-75
2022/03/10 08:17:06;;;;;;;29.65;15.15;;;10.60;99.90;;;;;;5098974;28;20445;-75
2022/03/10 08:19:32;;;;;;;23.23;13.60;;;10.60;99.90;;;;;;5100589;28;20028;-75
2022/03/10 08:21:58;;;;;;;20.25;13.93;;;10.70;99.90;;;;;;5087696;28;20048;-75
2022/03/10 08:24:26;;;;;;;23.98;13.45;;;10.70;99.90;;;;;;5085855;28;20028;-75
2022/03/10 08:26:52;;;;;;;19.85;13.10;;;10.80;99.90;;;;;;5099879;28;20094;-75
2022/03/10 08:29:18;;;;;;;24.63;14.75;;;10.70;99.90;;;;;;5100145;28;20541;-75
2022/03/10 08:31:44;;;;;;;21.00;13.38;;;10.70;99.90;;;;;;5099780;28;20035;-75
2022/03/10 08:34:10;;;;;;;19.75;13.05;;;10.70;99.90;;;;;;5100151;28;20103;-75
2022/03/10 08:36:36;;;;;;;23.55;12.85;;;10.70;99.90;;;;;;5099877;28;20079;-75
2022/03/10 08:39:02;;;;;;;20.45;11.05;;;10.70;99.90;;;;;;5098510;28;20123;-76
2022/03/10 08:41:28;;;;;;;20.35;12.38;;;10.70;99.90;;;;;;5098026;28;20032;-75
2022/03/10 08:43:54;;;;;;;16.42;10.48;;;10.80;99.90;;;;;;5098744;28;20039;-75
2022/03/10 08:46:19;;;;;;;17.80;10.52;;;10.90;99.90;;;;;;5098629;28;20064;-74
2022/03/10 08:48:46;;;;;;;23.45;11.05;;;11.00;99.90;;;;;;5100054;28;20083;-74
2022/03/10 08:51:12;;;;;;;15.32;9.93;;;11.10;99.90;;;;;;5099938;28;20062;-75
2022/03/10 08:53:38;;;;;;;18.92;11.05;;;11.20;99.90;;;;;;5099717;28;20028;-75
2022/03/10 08:56:06;;;;;;;18.35;10.10;;;11.40;99.90;;;;;;5099312;28;20031;-75
2022/03/10 08:58:32;;;;;;;15.55;10.30;;;11.50;99.90;;;;;;5099461;28;20031;-76
2022/03/10 09:00:58;;;;;;;15.48;9.07;;;11.60;99.90;;;;;;5099325;28;20032;-76
2022/03/10 09:03:25;;;;;;;22.55;9.18;;;11.70;99.90;;;;;;5099546;28;20032;-77
2022/03/10 09:05:51;;;;;;;21.63;9.45;;;11.80;99.90;;;;;;5097193;28;20051;-76
2022/03/10 09:08:17;;;;;;;20.48;9.13;;;11.90;99.90;;;;;;5099520;28;20020;-76
2022/03/10 09:10:43;;;;;;;14.32;9.38;;;11.90;99.90;;;;;;5082325;28;20099;-76
2022/03/10 09:13:09;;;;;;;17.30;7.80;;;11.90;99.90;;;;;;5097853;28;20062;-75
2022/03/10 09:15:35;;;;;;;15.10;7.63;;;12.00;99.90;;;;;;5097880;28;20031;-76
2022/03/10 09:18:02;;;;;;;13.38;7.88;;;12.00;99.90;;;;;;5099021;28;20020;-76
2022/03/10 09:20:28;;;;;;;14.30;8.02;;;12.10;99.90;;;;;;5099088;28;20046;-76
2022/03/10 09:22:54;;;;;;;14.90;8.55;;;12.20;99.90;;;;;;5098387;28;20032;-77
2022/03/10 09:25:20;;;;;;;13.48;7.38;;;12.30;99.90;;;;;;5097648;28;20024;-76
2022/03/10 09:27:48;;;;;;;13.70;7.22;;;12.40;99.90;;;;;;5097632;28;20028;-77
2022/03/10 09:30:14;;;;;;;10.77;7.55;;;12.50;99.90;;;;;;5097464;28;20396;-76
2022/03/10 09:32:43;;;;;;;13.25;7.45;;;12.50;99.90;;;;;;5097646;28;20035;-77
2022/03/10 09:35:11;;;;;;;19.33;7.45;;;12.50;99.90;;;;;;5097284;28;20128;-75
2022/03/10 09:37:37;;;;;;;16.95;7.45;;;12.50;99.90;;;;;;5097584;28;20032;-77
2022/03/10 09:40:04;;;;;;;12.95;7.88;;;12.50;99.90;;;;;;5097126;28;20044;-77
2022/03/10 09:42:32;;;;;;;14.48;6.80;;;12.50;99.90;;;;;;5098209;28;20096;-77
2022/03/10 09:45:01;;;;;;;15.75;8.63;;;12.60;99.90;;;;;;5086877;28;20036;-77
2022/03/10 09:47:27;;;;;;;14.40;7.70;;;12.70;99.90;;;;;;5097340;28;20506;-77
2022/03/10 09:49:54;;;;;;;10.90;6.90;;;12.90;99.90;;;;;;5098550;28;20016;-78
2022/03/10 09:52:22;;;;;;;11.95;7.43;;;13.00;99.90;;;;;;5097187;28;20063;-77
2022/03/10 09:54:48;;;;;;;13.63;7.55;;;13.20;99.90;;;;;;5097085;28;20028;-78
2022/03/10 09:57:16;;;;;;;10.45;7.07;;;13.30;99.90;;;;;;5098163;28;20035;-79
2022/03/10 09:59:58;;;;;;;18.65;8.48;;;13.40;99.90;;;;;;5085457;28;20483;-80
2022/03/10 10:02:24;;;;;;;9.38;7.45;;;13.30;99.90;;;;;;5083806;28;20112;-79
2022/03/10 10:04:51;;;;;;;12.68;7.85;;;13.40;99.90;;;;;;5097021;28;20046;-80
2022/03/10 10:07:22;;;;;;;10.90;7.40;;;13.40;99.90;;;;;;5098267;28;20028;-80
2022/03/10 10:09:53;;;;;;;9.07;6.78;;;13.40;99.90;;;;;;5097680;28;20020;-79
2022/03/10 10:12:23;;;;;;;10.65;6.50;;;13.40;99.90;;;;;;5095432;28;20025;-80
2022/03/10 10:14:51;;;;;;;10.68;7.43;;;13.50;99.90;;;;;;5098269;28;20020;-79
2022/03/10 10:17:29;;;;;;;11.30;6.20;;;13.50;99.90;;;;;;5097680;28;20039;-79
2022/03/10 10:19:57;;;;;;;9.77;6.05;;;13.50;99.90;;;;;;5087293;28;20032;-78
2022/03/10 10:22:25;;;;;;;12.45;6.75;;;13.70;99.90;;;;;;5097951;28;20499;-79
2022/03/10 10:24:57;;;;;;;12.50;7.25;;;13.70;99.90;;;;;;5096802;28;20020;-79
2022/03/10 10:27:32;;;;;;;11.40;6.15;;;13.80;99.90;;;;;;5095915;28;20108;-80
2022/03/10 10:30:06;;;;;;;10.02;5.72;;;13.90;99.90;;;;;;5095383;28;20047;-79
2022/03/10 10:32:48;;;;;;;8.98;5.88;;;14.00;99.90;;;;;;5095752;28;20398;-79
2022/03/10 10:35:20;;;;;;;7.88;5.22;;;14.10;99.90;;;;;;5095401;28;20016;-79
2022/03/10 10:37:50;;;;;;;9.32;5.45;;;14.10;99.90;;;;;;5096682;28;20120;-79
2022/03/10 10:40:24;;;;;;;10.20;5.72;;;14.20;99.90;;;;;;5096192;28;20067;-79
2022/03/10 10:42:51;;;;;;;9.73;5.88;;;14.30;99.90;;;;;;5096951;28;20028;-79
2022/03/10 10:45:34;;;;;;;8.45;5.30;;;14.30;99.90;;;;;;5096278;28;20031;-79
2022/03/10 10:48:08;;;;;;;10.10;5.55;;;14.40;99.90;;;;;;5095967;28;20031;-79
2022/03/10 10:50:40;;;;;;;12.00;6.20;;;14.50;99.90;;;;;;5097849;28;20082;-79
2022/03/10 10:53:06;;;;;;;8.68;6.32;;;14.60;99.90;;;;;;5096541;28;20103;-79
2022/03/10 10:55:41;;;;;;;8.52;6.43;;;14.80;99.90;;;;;;5096982;28;20032;-78
2022/03/10 10:58:13;;;;;;;8.88;5.78;;;14.90;99.90;;;;;;5096171;28;20060;-79
2022/03/10 11:00:47;;;;;;;10.00;6.15;;;15.10;99.90;;;;;;5095116;28;20028;-79
2022/03/10 11:03:31;;;;;;;14.40;6.88;;;15.10;99.90;;;;;;5095884;28;20024;-79
2022/03/10 11:05:58;;;;;;;10.45;7.10;;;15.20;99.90;;;;;;5096266;28;20066;-79
2022/03/10 11:08:28;;;;;;;10.20;6.80;;;15.10;99.90;;;;;;5097420;28;20448;-79
2022/03/10 11:10:54;;;;;;;10.38;6.50;;;15.10;99.90;;;;;;5097052;28;20016;-79
2022/03/10 11:13:21;;;;;;;9.52;6.03;;;15.20;99.90;;;;;;5095803;28;20032;-80
2022/03/10 11:15:48;;;;;;;11.80;7.15;;;15.30;99.90;;;;;;5096326;28;20019;-79
2022/03/10 11:18:14;;;;;;;11.10;8.10;;;15.30;99.90;;;;;;5097323;28;20456;-79
2022/03/10 11:20:44;;;;;;;14.27;8.05;;;15.20;99.90;;;;;;5096923;28;20922;-79
2022/03/10 11:23:47;;;;;;;12.27;8.38;;;15.20;99.90;;;;;;5097116;28;20024;-79
2022/03/10 11:26:26;;;;;;;14.20;8.85;;;15.30;99.90;;;;;;5085037;28;20028;-78
2022/03/10 11:28:55;;;;;;;11.50;8.32;;;15.20;99.90;;;;;;5097037;28;20074;-78
2022/03/10 11:31:22;;;;;;;13.38;9.07;;;15.30;99.90;;;;;;5095686;28;20466;-79
2022/03/10 11:33:48;;;;;;;14.02;9.23;;;15.30;99.90;;;;;;5097043;28;20051;-78
2022/03/10 11:36:23;;;;;;;14.35;8.75;;;15.40;99.90;;;;;;5095988;28;20496;-78
2022/03/10 11:39:12;;;;;;;14.45;9.77;;;15.40;99.90;;;;;;5095764;28;20108;-78
2022/03/10 11:41:46;;;;;;;14.00;10.02;;;15.50;99.90;;;;;;5094715;28;20404;-79
2022/03/10 11:44:13;;;;;;;14.25;10.55;;;15.40;99.90;;;;;;5097082;28;20030;-79
2022/03/10 11:46:57;;;;;;;13.48;9.20;;;15.40;99.90;;;;;;5097240;28;20111;-79
2022/03/10 11:49:26;;;;;;;13.63;9.63;;;15.20;99.90;;;;;;5100342;28;20023;-79
2022/03/10 11:52:04;;;;;;;15.23;10.90;;;15.20;99.90;;;;;;5087486;28;20054;-80
2022/03/10 11:54:32;;;;;;;12.35;9.93;;;15.10;99.90;;;;;;5099677;28;20392;-78
2022/03/10 11:57:03;;;;;;;13.35;9.18;;;15.20;99.90;;;;;;5092240;28;20027;-80
2022/03/10 11:59:32;;;;;;;12.85;8.40;;;15.10;99.90;;;;;;5099186;28;20397;-79
2022/03/10 12:01:59;;;;;;;12.05;8.55;;;15.20;99.90;;;;;;5096117;28;20052;-78
2022/03/10 12:04:38;;;;;;;13.38;7.53;;;15.10;99.90;;;;;;5099502;28;20024;-79
2022/03/10 12:07:07;;;;;;;12.93;8.95;;;15.10;99.90;;;;;;5100622;28;20020;-79
2022/03/10 12:09:38;;;;;;;10.60;9.23;;;15.10;99.90;;;;;;5098185;28;20073;-79
2022/03/10 12:12:25;;;;;;;11.48;8.05;;;15.10;99.90;;;;;;5100128;28;20032;-79
2022/03/10 12:14:55;;;;;;;10.90;8.57;;;15.00;99.90;;;;;;5099055;28;20040;-79
2022/03/10 12:17:44;;;;;;;12.32;7.53;;;15.00;99.90;;;;;;5093810;28;20032;-86
2022/03/10 12:20:17;;;;;;;15.50;8.02;;;15.00;99.90;;;;;;5091838;28;20032;-82
2022/03/10 12:23:06;;;;;;;10.23;7.90;;;15.00;99.90;;;;;;5087265;28;20047;-82
2022/03/10 12:25:57;;;;;;;9.82;7.07;;;15.10;99.90;;;;;;5087982;28;20066;-82
2022/03/10 12:28:30;;;;;;;13.45;7.68;;;15.10;99.90;;;;;;5098738;28;20503;-81
2022/03/10 12:31:18;;;;;;;12.15;7.75;;;15.20;99.90;;;;;;5078823;28;20506;-82
2022/03/10 12:33:48;;;;;;;9.57;7.28;;;15.10;99.90;;;;;;5095593;28;20027;-83
2022/03/10 12:36:27;;;;;;;10.32;7.75;;;15.10;99.90;;;;;;5098917;28;20027;-80
2022/03/10 12:38:53;;;;;;;14.35;6.90;;;15.00;99.90;;;;;;5099757;28;20040;-82
2022/03/10 12:41:25;;;;;;;9.23;6.82;;;15.00;99.90;;;;;;5101978;28;20623;-83
2022/03/10 12:43:55;;;;;;;12.00;6.63;;;14.90;99.90;;;;;;5090597;28;20027;-83